Portada
METAR-TAF:

METAR-TAF

Aeropuertos :

Bou Saâda, Argelia

latitud: 35-20N, longitud: 004-12E, altitud: 461 m

Observación

El informe se hizo hace 23 minutos, a las 18:00 UTC
Viento 8 kt del sur
Temperatura 30°C
Humedad 38%
Presión 1017 hPa
Visibilidad 10 km o más
sin nubes por debajo de 1500 m y sin presencia de cumulonimbus.

METAR: DAAD 231800Z 18008KT CAVOK 30/14 Q1017

Hora: 19:23 (18:23 UTC)

Pronóstico

El informe se hizo hace 1 hora y 23 minutos, a las 17:00 UTC
Pronóstico válido del 23 a las 18 UTC al 24 a las 03 UTC
Viento 12 kt del suroeste
Visibilidad 10 km o más
Escasas nubes a una altura de 3300 ft
Probabilidad 40%
del 23 a las 18 UTC al 23 a las 21 UTC
Escasas nubes a una altura de 3000 ft, Cumulonimbus.
tormenta, lluvia ligera

TAF: DAAD 231700Z 2318/2403 22012KT 9999 FEW033 PROB40 2318/2321 -TSRA FEW030CB

Observaciones y pronósticos meteorológicos de más de 4000 aeropuertos (mensajes METAR y TAF).

Los puntos amarillos y rojos representan las estaciones disponibles.

Ponga el ratón en el punto deseado para ver el nombre de la estación.

Haga clic para ver las observaciones y los pronósticos meteorológicos.

Para cambiar el mapa : haga clic en los botones verdes con una cruz de color negro para hacer un zoom, en el botón verde con un guión para alejar o en las flechas verdes para mapas adyacentes.


METAR-TAF: